createdAt,value
2019-02-05T00:00:47.093Z,28.25
2019-02-05T00:01:34.618Z,28.24
2019-02-05T00:02:13.960Z,28.26
2019-02-05T00:02:50.037Z,28.28
2019-02-05T00:03:26.237Z,28.27
2019-02-05T00:04:02.370Z,28.28
2019-02-05T00:04:38.537Z,28.28
2019-02-05T00:05:14.850Z,28.29
2019-02-05T00:05:51.149Z,28.29
2019-02-05T00:06:27.277Z,28.29
2019-02-05T00:07:03.431Z,28.29
2019-02-05T00:07:39.559Z,28.32
2019-02-05T00:08:15.713Z,28.33
2019-02-05T00:08:51.994Z,28.35
2019-02-05T00:09:28.157Z,28.36
2019-02-05T00:10:04.700Z,28.38
2019-02-05T00:10:41.026Z,28.40
2019-02-05T00:11:17.201Z,28.41
2019-02-05T00:11:53.292Z,28.42
2019-02-05T00:12:29.811Z,28.43
2019-02-05T00:13:06.065Z,28.45
2019-02-05T00:13:42.443Z,28.47
2019-02-05T00:14:18.675Z,28.48
2019-02-05T00:14:54.800Z,28.49
2019-02-05T00:15:30.935Z,28.50
2019-02-05T00:16:07.542Z,28.50
2019-02-05T00:16:43.751Z,28.53
2019-02-05T00:17:19.895Z,28.54
2019-02-05T00:17:55.960Z,28.57
2019-02-05T00:18:32.111Z,28.57
2019-02-05T00:19:09.483Z,28.59
2019-02-05T00:19:45.756Z,28.61
2019-02-05T00:20:21.947Z,28.63
2019-02-05T00:20:58.255Z,28.66
2019-02-05T00:21:34.445Z,28.66
2019-02-05T00:22:10.533Z,28.68
2019-02-05T00:22:47.088Z,28.70
2019-02-05T00:23:23.288Z,28.68
2019-02-05T00:23:59.836Z,28.75
2019-02-05T00:24:35.952Z,28.77
2019-02-05T00:25:12.201Z,28.81
2019-02-05T00:25:48.281Z,28.83
2019-02-05T00:26:24.408Z,28.86
2019-02-05T00:27:00.658Z,28.89
2019-02-05T00:27:37.000Z,28.91
2019-02-05T00:28:13.215Z,28.93
2019-02-05T00:28:49.248Z,28.96
2019-02-05T00:29:25.440Z,29.01
2019-02-05T00:30:01.548Z,29.03
2019-02-05T00:30:37.767Z,29.06
2019-02-05T00:31:13.929Z,29.08
2019-02-05T00:31:50.059Z,29.12
2019-02-05T00:32:26.201Z,29.13
2019-02-05T00:33:02.262Z,29.19
2019-02-05T00:33:38.346Z,29.19
2019-02-05T00:34:14.451Z,29.19
2019-02-05T00:34:51.454Z,29.20
2019-02-05T00:35:27.970Z,29.18
2019-02-05T00:36:04.249Z,29.25
2019-02-05T00:36:40.640Z,29.27
2019-02-05T00:37:16.872Z,29.29
2019-02-05T00:37:53.045Z,29.30
2019-02-05T00:38:29.388Z,29.33
2019-02-05T00:39:06.461Z,29.41
2019-02-05T00:39:42.517Z,29.41
2019-02-05T00:40:19.127Z,29.45
2019-02-05T00:40:55.368Z,29.49
2019-02-05T00:41:31.492Z,29.49
2019-02-05T00:42:07.750Z,29.54
2019-02-05T00:42:43.867Z,29.55
2019-02-05T00:43:20.058Z,29.55
2019-02-05T00:43:56.248Z,29.58
2019-02-05T00:44:32.602Z,29.65
2019-02-05T00:45:10.321Z,29.67
2019-02-05T00:45:46.616Z,29.67
2019-02-05T00:46:22.699Z,29.69
2019-02-05T00:46:59.096Z,29.72
2019-02-05T00:47:35.436Z,29.71
2019-02-05T00:48:11.688Z,29.71
2019-02-05T00:48:47.794Z,29.76
2019-02-05T00:49:23.945Z,29.76
2019-02-05T00:50:00.211Z,29.82
2019-02-05T00:50:36.235Z,29.87
2019-02-05T00:51:12.338Z,29.91
2019-02-05T00:51:48.455Z,29.94
2019-02-05T00:52:24.601Z,29.98
2019-02-05T00:53:00.864Z,30.02
2019-02-05T00:53:37.120Z,30.02
2019-02-05T00:54:13.442Z,30.14
2019-02-05T00:54:49.615Z,30.14
2019-02-05T00:55:25.762Z,30.16
2019-02-05T00:56:01.892Z,30.18
2019-02-05T00:56:37.960Z,30.25
2019-02-05T00:57:14.476Z,30.25
2019-02-05T00:57:50.628Z,30.28
2019-02-05T00:58:27.147Z,30.30
2019-02-05T00:59:03.339Z,30.30
2019-02-05T00:59:39.821Z,30.33
2019-02-05T01:00:32.071Z,30.33
2019-02-05T01:01:08.802Z,30.35
2019-02-05T01:01:44.949Z,30.36
2019-02-05T01:02:21.244Z,30.37
2019-02-05T01:02:57.818Z,30.37
2019-02-05T01:03:34.176Z,30.44
2019-02-05T01:04:10.691Z,30.44
2019-02-05T01:04:46.867Z,30.45
2019-02-05T01:05:23.563Z,30.45
2019-02-05T01:05:59.680Z,30.52
2019-02-05T01:06:35.956Z,30.52
2019-02-05T01:07:12.276Z,30.55
2019-02-05T01:07:48.551Z,30.55
2019-02-05T01:08:24.808Z,30.53
2019-02-05T01:09:01.155Z,30.53
2019-02-05T01:09:37.391Z,30.50
2019-02-05T01:10:13.751Z,30.50
2019-02-05T01:10:49.847Z,30.55
2019-02-05T01:11:25.956Z,30.57
2019-02-05T01:12:02.134Z,30.57
2019-02-05T01:12:38.215Z,30.57
2019-02-05T01:13:14.491Z,30.58
2019-02-05T01:13:50.706Z,30.58
2019-02-05T01:14:27.216Z,30.63
2019-02-05T01:15:03.436Z,30.63
2019-02-05T01:15:39.873Z,30.62
2019-02-05T01:16:16.076Z,30.62
2019-02-05T01:16:52.343Z,30.66
2019-02-05T01:17:28.673Z,30.66
2019-02-05T01:18:04.856Z,30.66
2019-02-05T01:18:40.958Z,30.80
2019-02-05T01:19:17.254Z,30.80
2019-02-05T01:19:53.331Z,30.89
2019-02-05T01:20:29.653Z,30.89
2019-02-05T01:21:06.069Z,30.97
2019-02-05T01:21:42.272Z,30.97
2019-02-05T01:22:18.440Z,30.97
2019-02-05T01:22:54.685Z,31.04
2019-02-05T01:23:30.862Z,31.11
2019-02-05T01:24:07.296Z,31.15
2019-02-05T01:24:43.411Z,31.15
2019-02-05T01:25:20.361Z,31.22
2019-02-05T01:25:56.772Z,31.20
2019-02-05T01:26:32.988Z,31.20
2019-02-05T01:27:09.161Z,31.23
2019-02-05T01:27:45.520Z,31.31
2019-02-05T01:28:21.729Z,31.35
2019-02-05T01:28:58.268Z,31.34
2019-02-05T01:29:34.527Z,31.42
2019-02-05T01:30:12.689Z,31.43
2019-02-05T01:30:48.928Z,31.41
2019-02-05T01:31:25.060Z,31.47
2019-02-05T01:32:01.354Z,31.48
2019-02-05T01:32:37.648Z,31.51
2019-02-05T01:33:13.966Z,31.52
2019-02-05T01:33:50.148Z,31.54
2019-02-05T01:34:26.407Z,31.58
2019-02-05T01:35:02.601Z,31.61
2019-02-05T01:35:38.887Z,31.65
2019-02-05T01:36:15.342Z,31.69
2019-02-05T01:36:51.793Z,31.73
2019-02-05T01:37:27.829Z,31.75
2019-02-05T01:38:04.063Z,31.75
2019-02-05T01:38:40.250Z,31.79
2019-02-05T01:39:16.505Z,31.82
2019-02-05T01:39:52.827Z,31.83
2019-02-05T01:40:28.938Z,31.85
2019-02-05T01:41:05.114Z,31.85
2019-02-05T01:41:41.262Z,31.89
2019-02-05T01:42:17.491Z,31.92
2019-02-05T01:42:53.687Z,31.94
2019-02-05T01:43:29.842Z,31.98
2019-02-05T01:44:06.448Z,32.01
2019-02-05T01:44:42.617Z,32.04
2019-02-05T01:45:20.281Z,32.06
2019-02-05T01:45:56.621Z,32.11
2019-02-05T01:46:32.944Z,32.14
2019-02-05T01:47:09.123Z,32.17
2019-02-05T01:47:45.349Z,32.23
2019-02-05T01:48:21.723Z,32.26
2019-02-05T01:48:57.912Z,32.28
2019-02-05T01:49:33.988Z,32.30
2019-02-05T01:50:10.670Z,32.34
2019-02-05T01:50:46.962Z,32.36
2019-02-05T01:51:23.046Z,32.40
2019-02-05T01:51:59.446Z,32.44
2019-02-05T01:52:35.559Z,32.49
2019-02-05T01:53:11.701Z,32.52
2019-02-05T01:53:47.972Z,32.57
2019-02-05T01:54:23.997Z,32.61
2019-02-05T01:55:00.324Z,32.66
2019-02-05T01:55:36.354Z,32.69
2019-02-05T01:56:12.627Z,32.71
2019-02-05T01:56:48.880Z,32.77
2019-02-05T01:57:24.998Z,32.81
2019-02-05T01:58:01.278Z,32.84
2019-02-05T01:58:37.532Z,32.88
2019-02-05T01:59:13.985Z,32.89
2019-02-05T01:59:50.035Z,32.96
2019-02-05T02:00:30.791Z,33.00
2019-02-05T02:01:07.214Z,33.03
2019-02-05T02:01:43.440Z,33.03
2019-02-05T02:02:19.567Z,33.06
2019-02-05T02:02:55.599Z,33.07
2019-02-05T02:03:31.864Z,33.09
2019-02-05T02:04:08.081Z,33.09
2019-02-05T02:04:44.348Z,33.09
2019-02-05T02:05:20.589Z,33.11
2019-02-05T02:05:56.935Z,33.13
2019-02-05T02:06:33.144Z,33.16
2019-02-05T02:07:09.491Z,33.20
2019-02-05T02:07:45.532Z,33.21
2019-02-05T02:08:22.139Z,33.16
2019-02-05T02:08:58.280Z,33.17
2019-02-05T02:09:34.415Z,33.16
2019-02-05T02:10:12.413Z,33.17
2019-02-05T02:10:48.502Z,33.18
2019-02-05T02:11:24.798Z,33.19
2019-02-05T02:12:00.931Z,33.19
2019-02-05T02:12:37.065Z,33.14
2019-02-05T02:13:13.136Z,33.17
2019-02-05T02:13:49.304Z,33.17
2019-02-05T02:14:25.543Z,33.17
2019-02-05T02:15:01.763Z,33.10
2019-02-05T02:15:38.033Z,33.13
2019-02-05T02:16:14.167Z,33.14
2019-02-05T02:16:50.419Z,33.19
2019-02-05T02:17:26.558Z,33.15
2019-02-05T02:18:02.856Z,33.17
2019-02-05T02:18:38.988Z,33.20
2019-02-05T02:19:15.044Z,33.25
2019-02-05T02:19:51.325Z,33.29
2019-02-05T02:20:27.578Z,33.32
2019-02-05T02:21:03.963Z,33.35
2019-02-05T02:21:40.094Z,33.37
2019-02-05T02:22:16.282Z,33.39
2019-02-05T02:22:52.427Z,33.41
2019-02-05T02:23:28.684Z,33.43
2019-02-05T02:24:05.036Z,33.46
2019-02-05T02:24:41.086Z,33.48
2019-02-05T02:25:17.352Z,33.47
2019-02-05T02:25:53.609Z,33.49
2019-02-05T02:26:29.904Z,33.51
2019-02-05T02:27:06.135Z,33.52
2019-02-05T02:27:42.182Z,33.52
2019-02-05T02:28:18.243Z,33.54
2019-02-05T02:28:54.333Z,33.54
2019-02-05T02:29:30.419Z,33.57
2019-02-05T02:30:08.280Z,33.58
2019-02-05T02:30:45.824Z,33.61
2019-02-05T02:31:22.260Z,33.66
2019-02-05T02:31:58.368Z,33.69
2019-02-05T02:32:34.773Z,33.71
2019-02-05T02:33:10.905Z,33.75
2019-02-05T02:33:46.993Z,33.76
2019-02-05T02:34:23.258Z,33.76
2019-02-05T02:34:59.531Z,33.75
2019-02-05T02:35:35.879Z,33.78
2019-02-05T02:36:12.015Z,33.78
2019-02-05T02:36:48.267Z,33.78
2019-02-05T02:37:24.416Z,33.78
2019-02-05T02:38:00.651Z,33.77
2019-02-05T02:38:37.118Z,33.86
2019-02-05T02:39:13.250Z,33.90
2019-02-05T02:39:49.414Z,33.93
2019-02-05T02:40:25.516Z,33.97
2019-02-05T02:41:01.678Z,33.99
2019-02-05T02:41:37.872Z,34.02
2019-02-05T02:42:14.017Z,34.09
2019-02-05T02:42:51.083Z,34.09
2019-02-05T02:43:27.408Z,34.05
2019-02-05T02:44:03.772Z,34.07
2019-02-05T02:44:39.866Z,34.04
2019-02-05T02:45:16.170Z,34.09
2019-02-05T02:45:52.287Z,34.12
2019-02-05T02:46:28.532Z,34.08
2019-02-05T02:47:04.564Z,34.07
2019-02-05T02:47:40.756Z,34.12
2019-02-05T02:48:16.885Z,34.08
2019-02-05T02:48:53.093Z,34.11
2019-02-05T02:49:29.322Z,34.12
2019-02-05T02:50:06.219Z,34.16
2019-02-05T02:50:42.583Z,34.16
2019-02-05T02:51:18.750Z,34.15
2019-02-05T02:51:54.795Z,34.18
2019-02-05T02:52:30.955Z,34.15
2019-02-05T02:53:07.183Z,34.17
2019-02-05T02:53:43.355Z,34.19
2019-02-05T02:54:19.721Z,34.17
2019-02-05T02:54:55.943Z,34.18
2019-02-05T02:55:32.585Z,34.19
2019-02-05T02:56:08.716Z,34.18
2019-02-05T02:56:44.843Z,34.17
2019-02-05T02:57:20.959Z,34.17
2019-02-05T02:57:57.202Z,34.18
2019-02-05T02:58:33.359Z,34.16
2019-02-05T02:59:09.621Z,34.18
2019-02-05T02:59:45.822Z,34.20
2019-02-05T03:00:22.512Z,34.23
2019-02-05T03:00:58.766Z,34.28
2019-02-05T03:01:35.003Z,34.21
2019-02-05T03:02:11.074Z,34.25
2019-02-05T03:02:47.517Z,34.29
2019-02-05T03:03:23.780Z,34.34
2019-02-05T03:03:59.801Z,34.37
2019-02-05T03:04:35.912Z,34.41
2019-02-05T03:05:13.941Z,34.47
2019-02-05T03:05:50.074Z,34.44
2019-02-05T03:06:26.132Z,34.44
2019-02-05T03:07:02.545Z,34.43
2019-02-05T03:07:38.637Z,34.45
2019-02-05T03:08:15.251Z,34.45
2019-02-05T03:08:51.364Z,34.50
2019-02-05T03:09:27.575Z,34.49
2019-02-05T03:10:03.805Z,34.50
2019-02-05T03:10:40.116Z,34.53
2019-02-05T03:11:16.247Z,34.55
2019-02-05T03:11:52.465Z,34.59
2019-02-05T03:12:28.716Z,34.55
2019-02-05T03:13:04.897Z,34.57
2019-02-05T03:13:41.137Z,34.58
2019-02-05T03:14:17.240Z,34.59
2019-02-05T03:14:53.278Z,34.61
2019-02-05T03:15:29.638Z,34.62
2019-02-05T03:16:06.114Z,34.63
2019-02-05T03:16:42.374Z,34.60
2019-02-05T03:17:18.532Z,34.53
2019-02-05T03:17:54.699Z,34.57
2019-02-05T03:18:30.921Z,34.60
2019-02-05T03:19:07.209Z,34.64
2019-02-05T03:19:43.436Z,34.68
2019-02-05T03:20:19.845Z,34.73
2019-02-05T03:20:56.011Z,34.77
2019-02-05T03:21:32.138Z,34.83
2019-02-05T03:22:08.608Z,34.88
2019-02-05T03:22:45.718Z,34.92
2019-02-05T03:23:22.522Z,34.96
2019-02-05T03:23:58.698Z,35.00
2019-02-05T03:24:34.950Z,35.04
2019-02-05T03:25:12.775Z,35.09
2019-02-05T03:25:48.951Z,35.12
2019-02-05T03:26:25.105Z,35.15
2019-02-05T03:27:01.380Z,35.18
2019-02-05T03:27:37.604Z,35.18
2019-02-05T03:28:13.654Z,35.16
2019-02-05T03:28:49.724Z,35.15
2019-02-05T03:29:25.849Z,35.19
2019-02-05T03:30:02.121Z,35.19
2019-02-05T03:30:38.183Z,35.22
2019-02-05T03:31:14.321Z,35.26
2019-02-05T03:31:50.352Z,35.28
2019-02-05T03:32:26.483Z,35.31
2019-02-05T03:33:02.629Z,35.34
2019-02-05T03:33:38.720Z,35.39
2019-02-05T03:34:14.900Z,35.43
2019-02-05T03:34:51.136Z,35.45
2019-02-05T03:35:27.377Z,35.47
2019-02-05T03:36:03.811Z,35.50
2019-02-05T03:36:39.993Z,35.50
2019-02-05T03:37:16.576Z,35.53
2019-02-05T03:37:53.122Z,35.58
2019-02-05T03:38:29.299Z,35.57
2019-02-05T03:39:06.908Z,35.59
2019-02-05T03:39:43.026Z,35.60
2019-02-05T03:41:11.124Z,35.62
2019-02-05T03:41:47.345Z,35.63
2019-02-05T03:42:23.410Z,35.61
2019-02-05T03:42:59.821Z,35.65
2019-02-05T03:43:37.939Z,35.66
2019-02-05T03:44:14.345Z,35.67
2019-02-05T03:44:50.637Z,35.68
2019-02-05T03:45:27.440Z,35.67
2019-02-05T03:46:03.900Z,35.66
2019-02-05T03:46:40.018Z,35.67
2019-02-05T03:47:16.231Z,35.67
2019-02-05T03:47:53.452Z,35.69
2019-02-05T03:48:29.877Z,35.71
2019-02-05T03:49:06.038Z,35.71
2019-02-05T03:49:42.428Z,35.74
2019-02-05T03:50:18.570Z,35.76
2019-02-05T03:50:58.512Z,35.73
2019-02-05T03:52:15.051Z,35.73
2019-02-05T03:52:56.256Z,35.71
2019-02-05T03:53:33.966Z,35.71
2019-02-05T03:54:28.385Z,35.69
2019-02-05T03:55:38.588Z,35.69
2019-02-05T03:57:06.689Z,35.64
2019-02-05T03:58:02.626Z,35.56
2019-02-05T03:59:03.919Z,35.46
2019-02-05T03:59:54.541Z,35.48
2019-02-05T04:00:44.497Z,35.47
2019-02-05T04:01:46.268Z,35.47
2019-02-05T04:02:53.465Z,35.46
2019-02-05T04:04:04.956Z,35.43
2019-02-05T04:05:32.354Z,35.47
2019-02-05T04:06:28.759Z,35.46
2019-02-05T04:07:18.237Z,35.49
2019-02-05T04:08:28.787Z,35.51
2019-02-05T04:09:36.777Z,35.49
2019-02-05T04:10:41.927Z,35.52
2019-02-05T04:11:39.914Z,35.55
2019-02-05T04:12:36.396Z,35.62
2019-02-05T04:13:49.195Z,35.63
2019-02-05T04:15:05.703Z,35.62
2019-02-05T04:15:56.011Z,35.60
2019-02-05T04:17:09.545Z,35.57
2019-02-05T04:18:28.296Z,35.61
2019-02-05T04:19:39.846Z,35.63
2019-02-05T04:20:56.200Z,35.61
2019-02-05T04:22:01.312Z,35.57
2019-02-05T04:23:05.085Z,35.58
2019-02-05T04:24:16.739Z,35.56
2019-02-05T04:25:05.747Z,35.56
2019-02-05T04:26:26.334Z,35.55
2019-02-05T04:28:01.085Z,35.55
2019-02-05T04:29:15.423Z,35.53
2019-02-05T04:30:41.280Z,35.47
2019-02-05T04:32:01.859Z,35.41
2019-02-05T04:33:17.642Z,35.41
2019-02-05T04:34:39.456Z,35.43
2019-02-05T04:35:50.976Z,35.45
2019-02-05T04:36:44.731Z,35.46
2019-02-05T04:38:28.149Z,35.46
2019-02-05T04:39:45.092Z,35.44
2019-02-05T04:40:45.108Z,35.40
2019-02-05T04:41:46.279Z,35.46
2019-02-05T04:43:23.328Z,35.47
2019-02-05T04:44:41.253Z,35.51
2019-02-05T04:45:49.354Z,35.51
2019-02-05T04:47:08.298Z,35.52
2019-02-05T04:48:04.675Z,35.56
2019-02-05T04:49:06.210Z,35.59
2019-02-05T04:50:18.023Z,35.64
2019-02-05T04:51:20.618Z,35.65
2019-02-05T04:52:28.710Z,35.74
2019-02-05T04:53:28.466Z,35.76
2019-02-05T04:55:11.202Z,35.76
2019-02-05T04:56:18.336Z,35.79
2019-02-05T04:57:40.340Z,35.82
2019-02-05T04:59:00.698Z,35.88
2019-02-05T05:00:00.495Z,35.98
2019-02-05T05:01:07.978Z,35.99
2019-02-05T05:02:19.761Z,36.00
2019-02-05T05:03:24.571Z,36.00
2019-02-05T05:04:22.348Z,36.04
2019-02-05T05:05:45.583Z,36.11
2019-02-05T05:07:19.716Z,36.11
2019-02-05T05:08:32.321Z,36.08
2019-02-05T05:09:16.761Z,36.06
2019-02-05T05:10:02.496Z,36.06
2019-02-05T05:10:38.612Z,36.06
2019-02-05T05:11:14.911Z,36.07
2019-02-05T05:11:51.024Z,36.08
2019-02-05T05:12:27.879Z,36.09
2019-02-05T05:13:04.235Z,36.11
2019-02-05T05:13:40.320Z,36.09
2019-02-05T05:14:16.531Z,36.11
2019-02-05T05:14:52.611Z,36.08
2019-02-05T05:15:28.773Z,36.08
2019-02-05T05:16:05.101Z,36.09
2019-02-05T05:16:41.392Z,36.05
2019-02-05T05:17:17.540Z,35.97
2019-02-05T05:17:53.647Z,35.99
2019-02-05T05:18:30.018Z,35.96
2019-02-05T05:19:06.504Z,35.93
2019-02-05T05:19:43.081Z,35.94
2019-02-05T05:20:19.282Z,35.96
2019-02-05T05:20:55.759Z,35.99
2019-02-05T05:21:31.940Z,36.03
2019-02-05T05:22:08.400Z,36.06
2019-02-05T05:22:45.083Z,36.10
2019-02-05T05:23:21.429Z,36.12
2019-02-05T05:23:57.777Z,36.14
2019-02-05T05:24:34.133Z,36.18
2019-02-05T05:25:11.635Z,36.19
2019-02-05T05:25:48.071Z,36.20
2019-02-05T05:26:24.250Z,36.21
2019-02-05T05:27:00.636Z,36.24
2019-02-05T05:27:36.848Z,36.26
2019-02-05T05:28:13.128Z,36.27
2019-02-05T05:28:49.302Z,36.26
2019-02-05T05:29:25.586Z,36.24
2019-02-05T05:30:01.730Z,36.24
2019-02-05T05:30:37.783Z,36.17
2019-02-05T05:31:14.018Z,36.19
2019-02-05T05:31:50.744Z,36.18
2019-02-05T05:32:27.408Z,36.17
2019-02-05T05:33:03.483Z,36.12
2019-02-05T05:33:39.845Z,36.05
2019-02-05T05:34:15.957Z,36.05
2019-02-05T05:34:52.237Z,36.04
2019-02-05T05:35:40.218Z,36.01
2019-02-05T05:36:06.430Z,36.02
2019-02-05T05:36:50.379Z,35.98
2019-02-05T05:37:26.562Z,35.96
2019-02-05T05:38:03.235Z,36.00
2019-02-05T05:38:39.393Z,36.01
2019-02-05T05:39:15.795Z,36.00
2019-02-05T05:39:52.052Z,36.02
2019-02-05T05:40:28.205Z,36.05
2019-02-05T05:41:04.635Z,36.04
2019-02-05T05:41:41.286Z,36.00
2019-02-05T05:42:17.418Z,36.04
2019-02-05T05:42:54.107Z,36.01
2019-02-05T05:43:30.181Z,36.06
2019-02-05T05:44:09.495Z,36.07
2019-02-05T05:44:44.236Z,36.07
2019-02-05T05:45:20.375Z,36.11
2019-02-05T05:45:56.629Z,36.12
2019-02-05T05:46:32.700Z,36.13
2019-02-05T05:47:08.936Z,36.15
2019-02-05T05:47:45.028Z,36.14
2019-02-05T05:48:21.097Z,36.14
2019-02-05T05:48:57.251Z,36.18
2019-02-05T05:49:33.356Z,36.19
2019-02-05T05:50:11.731Z,36.21
2019-02-05T05:50:47.862Z,36.22
2019-02-05T05:51:24.108Z,36.24
2019-02-05T05:52:00.271Z,36.26
2019-02-05T05:52:36.419Z,36.26
2019-02-05T05:53:15.307Z,36.20
2019-02-05T05:53:51.651Z,36.25
2019-02-05T05:54:28.017Z,36.20
2019-02-05T05:55:04.293Z,36.22
2019-02-05T05:55:40.423Z,36.22
2019-02-05T05:56:16.715Z,36.20
2019-02-05T05:56:52.789Z,36.23
2019-02-05T05:57:28.950Z,36.24
2019-02-05T05:58:05.061Z,36.23
2019-02-05T05:58:41.112Z,36.25
2019-02-05T05:59:17.247Z,36.20
2019-02-05T05:59:53.433Z,36.23
2019-02-05T06:00:29.791Z,36.25
2019-02-05T06:01:05.868Z,36.25
2019-02-05T06:01:41.985Z,36.26
2019-02-05T06:02:20.209Z,36.26
2019-02-05T06:02:56.352Z,36.31
2019-02-05T06:03:32.618Z,36.35
2019-02-05T06:04:08.906Z,36.33
2019-02-05T06:04:45.120Z,36.35
2019-02-05T06:05:21.985Z,36.37
2019-02-05T06:05:58.524Z,36.37
2019-02-05T06:06:34.739Z,36.36
2019-02-05T06:07:11.225Z,36.35
2019-02-05T06:07:47.568Z,36.36
2019-02-05T06:08:23.632Z,36.35
2019-02-05T06:08:59.754Z,36.32
2019-02-05T06:09:35.915Z,36.34
2019-02-05T06:10:12.599Z,36.33
2019-02-05T06:10:48.749Z,36.31
2019-02-05T06:11:24.952Z,36.27
2019-02-05T06:12:01.258Z,36.26
2019-02-05T06:12:37.403Z,36.22
2019-02-05T06:13:13.515Z,36.22
2019-02-05T06:13:49.614Z,36.22
2019-02-05T06:14:25.706Z,36.22
2019-02-05T06:15:01.915Z,36.24
2019-02-05T06:15:38.221Z,36.26
2019-02-05T06:16:14.395Z,36.28
2019-02-05T06:16:50.478Z,36.31
2019-02-05T06:17:26.533Z,36.30
2019-02-05T06:18:02.634Z,36.29
2019-02-05T06:18:40.553Z,36.30
2019-02-05T06:19:16.566Z,36.27
2019-02-05T06:19:52.851Z,36.24
2019-02-05T06:20:28.910Z,36.27
2019-02-05T06:21:05.104Z,36.29
2019-02-05T06:21:41.362Z,36.28
2019-02-05T06:22:17.527Z,36.29
2019-02-05T06:22:53.706Z,36.27
2019-02-05T06:23:29.895Z,36.31
2019-02-05T06:24:07.690Z,36.29
2019-02-05T06:24:43.816Z,36.29
2019-02-05T06:25:20.112Z,36.30
2019-02-05T06:25:56.352Z,36.30
2019-02-05T06:26:32.413Z,36.30
2019-02-05T06:27:08.469Z,36.28
2019-02-05T06:27:44.722Z,36.35
2019-02-05T06:28:20.976Z,36.37
2019-02-05T06:28:57.251Z,36.36
2019-02-05T06:29:33.457Z,36.37
2019-02-05T06:30:10.937Z,36.39
2019-02-05T06:30:46.987Z,36.41
2019-02-05T06:31:23.449Z,36.36
2019-02-05T06:31:59.610Z,36.38
2019-02-05T06:32:35.798Z,36.34
2019-02-05T06:33:12.078Z,36.38
2019-02-05T06:33:48.168Z,36.39
2019-02-05T06:34:24.367Z,36.40
2019-02-05T06:35:00.634Z,36.39
2019-02-05T06:35:36.878Z,36.38
2019-02-05T06:36:13.147Z,36.40
2019-02-05T06:36:49.290Z,36.42
2019-02-05T06:37:25.439Z,36.41
2019-02-05T06:38:01.678Z,36.42
2019-02-05T06:38:37.862Z,36.39
2019-02-05T06:39:13.969Z,36.42
2019-02-05T06:39:50.262Z,36.41
2019-02-05T06:40:26.684Z,36.42
2019-02-05T06:41:02.828Z,36.43
2019-02-05T06:41:39.432Z,36.46
2019-02-05T06:42:15.580Z,36.49
2019-02-05T06:42:51.697Z,36.49
2019-02-05T06:43:27.829Z,36.52
2019-02-05T06:44:04.139Z,36.54
2019-02-05T06:44:40.208Z,36.56
2019-02-05T06:45:17.025Z,36.57
2019-02-05T06:45:53.191Z,36.57
2019-02-05T06:46:29.342Z,36.63
2019-02-05T06:47:05.477Z,36.66
2019-02-05T06:47:41.902Z,36.65
2019-02-05T06:48:18.105Z,36.61
2019-02-05T06:48:54.290Z,36.61
2019-02-05T06:49:30.394Z,36.61
2019-02-05T06:50:07.091Z,36.63
2019-02-05T06:50:43.179Z,36.62
2019-02-05T06:51:19.394Z,36.62
2019-02-05T06:51:55.662Z,36.62
2019-02-05T06:52:31.960Z,36.62
2019-02-05T06:53:08.054Z,36.63
2019-02-05T06:53:44.337Z,36.64
2019-02-05T06:54:20.633Z,36.65
2019-02-05T06:54:56.768Z,36.65
2019-02-05T06:55:32.889Z,36.67
2019-02-05T06:56:09.090Z,36.67
2019-02-05T06:56:45.419Z,36.70
2019-02-05T06:57:21.572Z,36.72
2019-02-05T06:57:57.877Z,36.75
2019-02-05T06:58:45.749Z,36.77
2019-02-05T06:59:11.748Z,36.80
2019-02-05T06:59:48.099Z,36.80
2019-02-05T07:00:24.519Z,36.77
2019-02-05T07:01:00.739Z,36.77
2019-02-05T07:01:36.990Z,36.77
2019-02-05T07:02:13.378Z,36.73
2019-02-05T07:02:49.590Z,36.72
2019-02-05T07:03:25.718Z,36.73
2019-02-05T07:04:01.859Z,36.70
2019-02-05T07:04:37.984Z,36.70
2019-02-05T07:05:14.363Z,36.71
2019-02-05T07:05:50.590Z,36.72
2019-02-05T07:06:26.779Z,36.70
2019-02-05T07:07:02.888Z,36.73
2019-02-05T07:07:39.007Z,36.73
2019-02-05T07:08:15.256Z,36.70
2019-02-05T07:08:51.487Z,36.72
2019-02-05T07:09:28.087Z,36.68
2019-02-05T07:10:04.306Z,36.64
2019-02-05T07:10:40.686Z,36.64
2019-02-05T07:11:16.883Z,36.59
2019-02-05T07:11:53.086Z,36.64
2019-02-05T07:12:29.166Z,36.64
2019-02-05T07:13:05.351Z,36.62
2019-02-05T07:13:41.490Z,36.64
2019-02-05T07:14:17.786Z,36.64
2019-02-05T07:14:54.021Z,36.65
2019-02-05T07:15:30.124Z,36.67
2019-02-05T07:16:06.412Z,36.66
2019-02-05T07:16:42.640Z,36.69
2019-02-05T07:17:18.925Z,36.69
2019-02-05T07:17:55.081Z,36.71
2019-02-05T07:18:31.333Z,36.71
2019-02-05T07:19:07.655Z,36.69
2019-02-05T07:19:43.923Z,36.71
2019-02-05T07:20:20.250Z,36.69
2019-02-05T07:20:56.341Z,36.70
2019-02-05T07:21:32.450Z,36.66
2019-02-05T07:22:09.050Z,36.70
2019-02-05T07:22:45.166Z,36.73
2019-02-05T07:23:21.774Z,36.73
2019-02-05T07:23:58.019Z,36.72
2019-02-05T07:24:34.253Z,36.70
2019-02-05T07:25:12.584Z,36.67
2019-02-05T07:25:48.751Z,36.65
2019-02-05T07:26:24.997Z,36.69
2019-02-05T07:27:01.181Z,36.70
2019-02-05T07:27:37.387Z,36.72
2019-02-05T07:28:13.540Z,36.69
2019-02-05T07:28:58.174Z,36.65
2019-02-05T07:29:27.782Z,36.66
2019-02-05T07:30:03.998Z,36.71
2019-02-05T07:30:40.393Z,36.69
2019-02-05T07:31:16.580Z,36.68
2019-02-05T07:31:52.888Z,36.65
2019-02-05T07:32:29.182Z,36.69
2019-02-05T07:33:05.278Z,36.69
2019-02-05T07:33:41.422Z,36.71
2019-02-05T07:34:17.458Z,36.72
2019-02-05T07:34:53.747Z,36.71
2019-02-05T07:35:30.125Z,36.72
2019-02-05T07:36:06.768Z,36.73
2019-02-05T07:36:42.970Z,36.74
2019-02-05T07:37:19.354Z,36.72
2019-02-05T07:37:55.660Z,36.70
2019-02-05T07:38:31.802Z,36.67
2019-02-05T07:39:10.374Z,36.63
2019-02-05T07:39:46.564Z,36.60
2019-02-05T07:40:23.598Z,36.60
2019-02-05T07:40:59.748Z,36.57
2019-02-05T07:41:35.845Z,36.58
2019-02-05T07:42:12.190Z,36.56
2019-02-05T07:42:48.231Z,36.56
2019-02-05T07:43:24.408Z,36.51
2019-02-05T07:44:00.502Z,36.49
2019-02-05T07:44:39.915Z,36.43
2019-02-05T07:45:16.816Z,36.40
2019-02-05T07:45:53.156Z,36.34
2019-02-05T07:46:29.285Z,36.33
2019-02-05T07:47:05.398Z,36.30
2019-02-05T07:47:41.825Z,36.33
2019-02-05T07:48:18.082Z,36.34
2019-02-05T07:48:54.755Z,36.36
2019-02-05T07:49:30.918Z,36.39
2019-02-05T07:50:09.767Z,36.37
2019-02-05T07:50:46.135Z,36.36
2019-02-05T07:51:22.301Z,36.32
2019-02-05T07:51:58.533Z,36.29
2019-02-05T07:52:34.793Z,36.25
2019-02-05T07:53:11.106Z,36.19
2019-02-05T07:53:47.334Z,36.24
2019-02-05T07:54:23.467Z,36.20
2019-02-05T07:54:59.544Z,36.18
2019-02-05T07:55:35.655Z,36.18
2019-02-05T07:56:12.949Z,36.18
2019-02-05T07:56:49.218Z,36.20
2019-02-05T07:57:25.419Z,36.18
2019-02-05T07:58:01.667Z,36.16
2019-02-05T07:58:37.862Z,36.17
2019-02-05T07:59:14.011Z,36.19
2019-02-05T07:59:50.123Z,36.18
2019-02-05T08:00:28.232Z,36.24
2019-02-05T08:01:04.617Z,36.28
2019-02-05T08:01:41.055Z,36.25
2019-02-05T08:02:17.061Z,36.30
2019-02-05T08:02:53.482Z,36.33
2019-02-05T08:03:29.655Z,36.35
2019-02-05T08:04:05.798Z,36.38
2019-02-05T08:04:41.867Z,36.39
2019-02-05T08:05:20.267Z,36.37
2019-02-05T08:05:56.382Z,36.41
2019-02-05T08:06:32.531Z,36.41
2019-02-05T08:07:08.764Z,36.39
2019-02-05T08:07:44.934Z,36.35
2019-02-05T08:08:21.082Z,36.32
2019-02-05T08:08:57.169Z,36.25
2019-02-05T08:09:33.217Z,36.25
2019-02-05T08:10:09.772Z,36.25
2019-02-05T08:10:45.920Z,36.26
2019-02-05T08:11:22.127Z,36.25
2019-02-05T08:11:58.409Z,36.24
2019-02-05T08:12:34.612Z,36.17
2019-02-05T08:13:10.929Z,36.12
2019-02-05T08:13:47.116Z,36.09
2019-02-05T08:14:23.188Z,36.08
2019-02-05T08:14:59.376Z,36.04
2019-02-05T08:15:36.052Z,35.97
2019-02-05T08:16:12.187Z,35.91
2019-02-05T08:16:48.344Z,35.91
2019-02-05T08:17:24.618Z,35.88
2019-02-05T08:18:01.216Z,35.89
2019-02-05T08:18:37.526Z,35.92
2019-02-05T08:19:13.838Z,35.95
2019-02-05T08:19:50.052Z,35.96
2019-02-05T08:20:26.612Z,35.98
2019-02-05T08:21:02.739Z,36.00
2019-02-05T08:21:38.802Z,35.98
2019-02-05T08:22:14.984Z,36.02
2019-02-05T08:22:51.133Z,36.05
2019-02-05T08:23:27.458Z,36.06
2019-02-05T08:24:03.646Z,36.09
2019-02-05T08:24:39.802Z,36.11
2019-02-05T08:25:16.358Z,36.11
2019-02-05T08:25:52.569Z,36.12
2019-02-05T08:26:28.849Z,36.12
2019-02-05T08:27:04.977Z,36.10